Time,TemperatureF,DewpointF,PressureIn,WindDirection,WindDirectionDegrees,WindSpeedMPH,WindSpeedGustMPH,Humidity,HourlyPrecipIn,Conditions,Clouds,dailyrainin,SoftwareType,DateUTC
2017-03-29 00:04:00,49.7,46.6,26.52,NNW,343,0.0,0.0,89,0.00,,,0.51,Wunderground v.1.13,2017-03-29 04:04:00,
2017-03-29 00:09:00,49.6,46.5,26.52,NNW,343,0.0,1.0,89,0.00,,,0.00,Wunderground v.1.13,2017-03-29 04:09:00,
2017-03-29 00:14:00,49.5,46.4,26.52,NNW,343,0.0,1.0,89,0.00,,,0.00,Wunderground v.1.13,2017-03-29 04:14:00,
2017-03-29 00:19:00,49.5,46.4,26.52,NNW,343,0.0,0.0,89,0.00,,,0.00,Wunderground v.1.13,2017-03-29 04:19:00,
2017-03-29 00:24:00,49.4,46.3,26.52,NNW,343,0.0,0.0,89,0.00,,,0.00,Wunderground v.1.13,2017-03-29 04:24:00,
2017-03-29 00:29:00,49.3,46.2,26.52,NNW,343,0.0,0.0,89,0.00,,,0.00,Wunderground v.1.13,2017-03-29 04:29:00,
2017-03-29 00:34:00,49.3,46.2,26.52,NNW,343,0.0,0.0,89,0.00,,,0.00,Wunderground v.1.13,2017-03-29 04:34:00,
2017-03-29 00:39:00,49.2,46.1,26.52,NNW,343,0.0,0.0,89,0.00,,,0.00,Wunderground v.1.13,2017-03-29 04:39:00,
2017-03-29 00:44:00,49.2,46.1,26.52,NNW,343,0.0,0.0,89,0.00,,,0.00,Wunderground v.1.13,2017-03-29 04:44:00,
2017-03-29 00:46:00,49.2,46.1,26.52,NNW,343,0.0,0.0,89,0.00,,,0.00,Wunderground v.1.13,2017-03-29 04:46:00,
2017-03-29 00:51:00,49.1,46.0,29.19,NNW,343,0.0,0.0,89,0.00,,,0.00,Wunderground v.1.13,2017-03-29 04:51:00,
2017-03-29 00:56:00,49.0,45.9,29.19,NNW,343,0.0,0.0,89,0.00,,,0.00,Wunderground v.1.13,2017-03-29 04:56:00,
2017-03-29 01:01:00,48.9,45.8,29.19,NNW,343,0.0,0.0,89,0.00,,,0.00,Wunderground v.1.13,2017-03-29 05:01:00,
2017-03-29 01:06:00,48.9,46.1,29.19,NNW,343,0.0,0.0,90,0.00,,,0.00,Wunderground v.1.13,2017-03-29 05:06:00,
2017-03-29 01:12:00,48.8,46.0,29.19,NNW,343,0.0,0.0,90,0.00,,,0.00,Wunderground v.1.13,2017-03-29 05:12:00,
2017-03-29 01:18:00,48.8,46.0,29.19,NNW,343,0.0,0.0,90,0.00,,,0.00,Wunderground v.1.13,2017-03-29 05:18:00,
2017-03-29 01:24:00,48.7,45.9,29.19,NNW,343,0.0,0.0,90,0.00,,,0.00,Wunderground v.1.13,2017-03-29 05:24:00,
2017-03-29 01:30:00,48.7,45.9,29.19,NNW,343,0.0,0.0,90,0.00,,,0.00,Wunderground v.1.13,2017-03-29 05:30:00,
2017-03-29 01:36:00,48.6,45.8,29.19,NNW,343,0.0,0.0,90,0.00,,,0.00,Wunderground v.1.13,2017-03-29 05:36:00,
2017-03-29 01:42:00,48.5,45.7,29.19,NNW,343,0.0,0.0,90,0.00,,,0.00,Wunderground v.1.13,2017-03-29 05:42:00,
2017-03-29 01:48:00,48.5,45.7,29.19,NNW,343,0.0,0.0,90,0.00,,,0.00,Wunderground v.1.13,2017-03-29 05:48:00,
2017-03-29 01:54:00,48.4,45.6,29.19,NNW,343,0.0,0.0,90,0.00,,,0.00,Wunderground v.1.13,2017-03-29 05:54:00,
2017-03-29 01:59:00,48.4,45.6,29.19,NNW,343,0.0,0.0,90,0.00,,,0.00,Wunderground v.1.13,2017-03-29 05:59:00,
2017-03-29 02:05:00,48.3,45.5,29.19,NNW,343,0.0,0.0,90,0.00,,,0.00,Wunderground v.1.13,2017-03-29 06:05:00,
2017-03-29 02:11:00,48.3,45.5,29.19,NNW,343,0.0,0.0,90,0.00,,,0.00,Wunderground v.1.13,2017-03-29 06:11:00,
2017-03-29 02:17:00,48.3,45.5,29.19,NNW,343,0.0,0.0,90,0.00,,,0.00,Wunderground v.1.13,2017-03-29 06:17:00,
2017-03-29 02:22:00,48.3,45.5,29.19,NNW,343,0.0,0.0,90,0.00,,,0.00,Wunderground v.1.13,2017-03-29 06:22:00,
2017-03-29 02:28:00,48.2,45.4,29.19,NNW,343,0.0,1.0,90,0.00,,,0.00,Wunderground v.1.13,2017-03-29 06:28:00,
2017-03-29 02:34:00,48.1,45.3,29.19,NNW,343,0.0,1.0,90,0.00,,,0.00,Wunderground v.1.13,2017-03-29 06:34:00,
2017-03-29 02:40:00,48.1,45.3,29.19,NNW,341,0.0,0.0,90,0.00,,,0.00,Wunderground v.1.13,2017-03-29 06:40:00,
2017-03-29 02:45:00,48.0,45.2,29.19,NNW,341,0.0,0.0,90,0.00,,,0.00,Wunderground v.1.13,2017-03-29 06:45:00,
2017-03-29 02:51:00,47.9,45.1,29.19,NNW,341,0.0,0.0,90,0.00,,,0.00,Wunderground v.1.13,2017-03-29 06:51:00,
2017-03-29 02:57:00,47.8,45.0,29.19,NNW,342,0.0,0.0,90,0.00,,,0.00,Wunderground v.1.13,2017-03-29 06:57:00,
2017-03-29 03:02:00,47.7,44.9,29.19,NNW,342,0.0,0.0,90,0.00,,,0.00,Wunderground v.1.13,2017-03-29 07:02:00,
2017-03-29 03:07:00,47.6,44.8,29.19,NNW,342,0.0,0.0,90,0.00,,,0.00,Wunderground v.1.13,2017-03-29 07:07:00,
2017-03-29 03:12:00,47.5,44.7,29.19,NNW,342,0.0,0.0,90,0.00,,,0.00,Wunderground v.1.13,2017-03-29 07:12:00,
2017-03-29 03:17:00,47.4,44.9,29.19,NNW,342,0.0,0.0,91,0.00,,,0.00,Wunderground v.1.13,2017-03-29 07:17:00,
2017-03-29 03:22:00,47.3,44.8,29.19,NNW,342,0.0,0.0,91,0.00,,,0.00,Wunderground v.1.13,2017-03-29 07:22:00,
2017-03-29 03:27:00,47.3,44.8,29.19,NNW,342,2.0,3.0,91,0.00,,,0.00,Wunderground v.1.13,2017-03-29 07:27:00,
2017-03-29 03:32:00,47.2,44.7,29.19,NNW,342,4.0,7.0,91,0.00,,,0.00,Wunderground v.1.13,2017-03-29 07:32:00,
2017-03-29 03:37:00,47.0,44.5,29.19,NNW,345,0.0,3.0,91,0.00,,,0.00,Wunderground v.1.13,2017-03-29 07:37:00,
2017-03-29 03:42:00,46.8,44.3,29.19,NNW,345,0.0,1.0,91,0.00,,,0.00,Wunderground v.1.13,2017-03-29 07:42:00,
2017-03-29 03:47:00,46.7,44.2,29.19,NNW,345,2.0,3.0,91,0.00,,,0.01,Wunderground v.1.13,2017-03-29 07:47:00,
2017-03-29 03:52:00,46.6,44.1,30.78,NNW,345,0.0,0.0,91,0.00,,,0.01,Wunderground v.1.13,2017-03-29 07:52:00,
2017-03-29 03:57:00,46.5,44.3,30.78,NNW,345,0.0,0.0,92,0.00,,,0.01,Wunderground v.1.13,2017-03-29 07:57:00,
2017-03-29 04:02:00,46.4,44.2,30.78,NNW,345,3.0,4.0,92,0.00,,,0.01,Wunderground v.1.13,2017-03-29 08:02:00,
2017-03-29 04:07:00,46.3,44.1,30.78,NNW,345,0.0,1.0,92,0.00,,,0.01,Wunderground v.1.13,2017-03-29 08:07:00,
2017-03-29 04:12:00,46.2,44.0,30.78,NNW,345,1.0,2.0,92,0.00,,,0.01,Wunderground v.1.13,2017-03-29 08:12:00,
2017-03-29 04:17:00,46.1,43.9,30.78,NNW,344,0.0,3.0,92,0.00,,,0.01,Wunderground v.1.13,2017-03-29 08:17:00,
2017-03-29 04:22:00,46.1,43.9,30.78,NNW,345,0.0,5.0,92,0.00,,,0.01,Wunderground v.1.13,2017-03-29 08:22:00,
2017-03-29 04:27:00,46.0,43.8,30.78,NNW,345,0.0,1.0,92,0.00,,,0.01,Wunderground v.1.13,2017-03-29 08:27:00,
2017-03-29 04:32:00,45.9,43.7,30.78,NNW,345,0.0,0.0,92,0.00,,,0.01,Wunderground v.1.13,2017-03-29 08:32:00,
2017-03-29 04:37:00,45.9,43.7,30.78,NNW,345,0.0,0.0,92,0.00,,,0.01,Wunderground v.1.13,2017-03-29 08:37:00,
2017-03-29 04:42:00,45.9,43.7,30.78,NNW,345,0.0,1.0,92,0.00,,,0.01,Wunderground v.1.13,2017-03-29 08:42:00,
2017-03-29 04:47:00,45.8,43.6,30.78,NNW,345,0.0,0.0,92,0.00,,,0.01,Wunderground v.1.13,2017-03-29 08:47:00,
2017-03-29 04:53:00,45.7,43.5,30.78,NNW,345,0.0,0.0,92,0.00,,,0.01,Wunderground v.1.13,2017-03-29 08:53:00,
2017-03-29 04:58:00,45.7,43.8,30.78,NNW,345,0.0,0.0,93,0.00,,,0.01,Wunderground v.1.13,2017-03-29 08:58:00,
2017-03-29 05:03:00,45.6,43.7,30.78,NNW,345,0.0,0.0,93,0.00,,,0.01,Wunderground v.1.13,2017-03-29 09:03:00,
2017-03-29 05:08:00,45.6,43.7,30.78,NNW,345,0.0,0.0,93,0.00,,,0.01,Wunderground v.1.13,2017-03-29 09:08:00,
2017-03-29 05:13:00,45.5,43.6,30.78,NNW,345,0.0,0.0,93,0.00,,,0.01,Wunderground v.1.13,2017-03-29 09:13:00,
2017-03-29 05:18:00,45.4,43.5,30.78,NNW,345,0.0,3.0,93,0.00,,,0.01,Wunderground v.1.13,2017-03-29 09:18:00,
2017-03-29 05:23:00,45.2,43.3,30.78,NNW,345,3.0,4.0,93,0.00,,,0.01,Wunderground v.1.13,2017-03-29 09:23:00,
2017-03-29 05:28:00,45.1,42.9,30.78,NNW,345,0.0,3.0,92,0.00,,,0.01,Wunderground v.1.13,2017-03-29 09:28:00,
2017-03-29 05:33:00,45.0,42.8,30.78,NNW,345,0.0,1.0,92,0.00,,,0.01,Wunderground v.1.13,2017-03-29 09:33:00,
2017-03-29 05:38:00,45.0,42.8,30.78,NNW,345,3.0,4.0,92,0.00,,,0.01,Wunderground v.1.13,2017-03-29 09:38:00,
2017-03-29 05:43:00,44.9,42.7,30.78,NNW,346,1.0,5.0,92,0.00,,,0.01,Wunderground v.1.13,2017-03-29 09:43:00,
2017-03-29 05:48:00,44.8,42.6,30.78,NNW,346,0.0,6.0,92,0.00,,,0.01,Wunderground v.1.13,2017-03-29 09:48:00,
2017-03-29 05:53:00,44.7,42.5,30.78,NNW,346,0.0,1.0,92,0.00,,,0.01,Wunderground v.1.13,2017-03-29 09:53:00,
2017-03-29 05:58:00,44.7,42.5,30.78,NNW,346,0.0,1.0,92,0.00,,,0.01,Wunderground v.1.13,2017-03-29 09:58:00,
2017-03-29 06:03:00,44.7,42.5,30.78,NNW,346,0.0,0.0,92,0.00,,,0.01,Wunderground v.1.13,2017-03-29 10:03:00,
2017-03-29 06:08:00,44.7,42.5,30.78,NNW,346,0.0,0.0,92,0.00,,,0.01,Wunderground v.1.13,2017-03-29 10:08:00,
2017-03-29 06:13:00,44.7,42.5,30.78,NNW,346,0.0,0.0,92,0.00,,,0.01,Wunderground v.1.13,2017-03-29 10:13:00,
2017-03-29 06:18:00,44.7,42.5,30.78,NNW,346,0.0,0.0,92,0.00,,,0.01,Wunderground v.1.13,2017-03-29 10:18:00,
2017-03-29 06:23:00,44.7,42.5,30.78,NNW,346,0.0,0.0,92,0.00,,,0.01,Wunderground v.1.13,2017-03-29 10:23:00,
2017-03-29 06:28:00,44.7,42.2,30.78,NNW,346,0.0,2.0,91,0.00,,,0.01,Wunderground v.1.13,2017-03-29 10:28:00,
2017-03-29 06:33:00,44.7,42.2,30.78,NNW,346,0.0,0.0,91,0.00,,,0.01,Wunderground v.1.13,2017-03-29 10:33:00,
2017-03-29 06:38:00,44.7,42.2,30.78,NNW,346,0.0,0.0,91,0.00,,,0.01,Wunderground v.1.13,2017-03-29 10:38:00,
2017-03-29 06:43:00,44.7,42.2,30.78,NNW,346,0.0,3.0,91,0.00,,,0.01,Wunderground v.1.13,2017-03-29 10:43:00,
2017-03-29 06:48:00,44.6,42.1,30.78,NNW,346,0.0,1.0,91,0.00,,,0.01,Wunderground v.1.13,2017-03-29 10:48:00,
2017-03-29 06:53:00,44.6,42.1,30.78,NNW,345,3.0,3.0,91,0.00,,,0.01,Wunderground v.1.13,2017-03-29 10:53:00,
2017-03-29 06:58:00,44.5,42.0,30.78,NNW,345,0.0,0.0,91,0.00,,,0.01,Wunderground v.1.13,2017-03-29 10:58:00,
2017-03-29 07:03:00,44.5,42.0,30.78,NNW,345,0.0,2.0,91,0.00,,,0.01,Wunderground v.1.13,2017-03-29 11:03:00,
2017-03-29 07:08:00,44.5,41.7,30.78,NNW,345,0.0,0.0,90,0.00,,,0.01,Wunderground v.1.13,2017-03-29 11:08:00,
2017-03-29 07:13:00,44.5,41.7,30.78,NNW,345,1.0,2.0,90,0.00,,,0.01,Wunderground v.1.13,2017-03-29 11:13:00,
2017-03-29 07:18:00,44.5,41.7,30.78,NNW,345,0.0,0.0,90,0.00,,,0.01,Wunderground v.1.13,2017-03-29 11:18:00,
2017-03-29 07:23:00,44.4,41.7,30.78,NNW,345,0.0,0.0,90,0.00,,,0.01,Wunderground v.1.13,2017-03-29 11:23:00,
2017-03-29 07:26:00,44.4,41.7,30.78,NNW,345,5.0,6.0,90,0.00,,,0.01,Wunderground v.1.13,2017-03-29 11:26:00,
2017-03-29 07:31:00,44.4,41.4,30.78,NNW,345,2.0,4.0,89,0.00,,,0.01,Wunderground v.1.13,2017-03-29 11:31:00,
2017-03-29 07:36:00,44.3,41.3,30.78,NNW,345,0.0,1.0,89,0.00,,,0.01,Wunderground v.1.13,2017-03-29 11:36:00,
2017-03-29 07:42:00,44.3,41.3,30.78,NNW,345,0.0,1.0,89,0.00,,,0.01,Wunderground v.1.13,2017-03-29 11:42:00,
2017-03-29 07:47:00,44.3,41.0,30.78,NNW,345,0.0,4.0,88,0.00,,,0.01,Wunderground v.1.13,2017-03-29 11:47:00,
2017-03-29 07:52:00,44.3,41.0,30.78,NNW,346,2.0,5.0,88,0.00,,,0.01,Wunderground v.1.13,2017-03-29 11:52:00,
2017-03-29 07:57:00,44.2,40.6,30.78,NNW,346,6.0,6.0,87,0.00,,,0.01,Wunderground v.1.13,2017-03-29 11:57:00,
2017-03-29 08:02:00,44.2,40.3,30.78,NNW,346,0.0,1.0,86,0.00,,,0.01,Wunderground v.1.13,2017-03-29 12:02:00,
2017-03-29 08:07:00,44.2,40.3,30.78,NNW,346,0.0,6.0,86,0.00,,,0.01,Wunderground v.1.13,2017-03-29 12:07:00,
2017-03-29 08:12:00,44.2,40.0,30.78,North,349,3.0,6.0,85,0.00,,,0.01,Wunderground v.1.13,2017-03-29 12:12:00,
2017-03-29 08:17:00,44.2,40.0,30.78,North,355,0.0,5.0,85,0.00,,,0.01,Wunderground v.1.13,2017-03-29 12:17:00,
2017-03-29 08:22:00,44.3,39.8,30.78,North,355,0.0,4.0,84,0.00,,,0.01,Wunderground v.1.13,2017-03-29 12:22:00,
2017-03-29 08:27:00,44.4,39.9,30.78,North,355,3.0,4.0,84,0.00,,,0.01,Wunderground v.1.13,2017-03-29 12:27:00,
2017-03-29 08:32:00,44.5,40.0,32.02,North,355,0.0,5.0,84,0.00,,,0.01,Wunderground v.1.13,2017-03-29 12:32:00,
2017-03-29 08:37:00,44.5,39.7,32.02,North,355,0.0,5.0,83,0.00,,,0.01,Wunderground v.1.13,2017-03-29 12:37:00,
2017-03-29 08:42:00,44.6,39.8,32.02,North,355,0.0,5.0,83,0.00,,,0.01,Wunderground v.1.13,2017-03-29 12:42:00,
2017-03-29 08:47:00,44.7,39.5,32.02,North,355,0.0,4.0,82,0.00,,,0.01,Wunderground v.1.13,2017-03-29 12:47:00,
2017-03-29 08:52:00,44.8,39.6,32.02,North,360,3.0,5.0,82,0.00,,,0.01,Wunderground v.1.13,2017-03-29 12:52:00,
2017-03-29 08:57:00,44.9,39.7,32.02,North,9,2.0,6.0,82,0.00,,,0.01,Wunderground v.1.13,2017-03-29 12:57:00,
2017-03-29 09:02:00,45.0,39.8,32.02,NNE,26,4.0,7.0,82,0.00,,,0.01,Wunderground v.1.13,2017-03-29 13:02:00,
2017-03-29 09:07:00,45.2,39.7,32.02,NNE,22,5.0,5.0,81,0.00,,,0.01,Wunderground v.1.13,2017-03-29 13:07:00,
2017-03-29 09:12:00,45.3,39.5,32.02,NNE,22,3.0,5.0,80,0.00,,,0.01,Wunderground v.1.13,2017-03-29 13:12:00,
2017-03-29 09:17:00,45.4,39.6,32.02,NNE,22,0.0,3.0,80,0.00,,,0.01,Wunderground v.1.13,2017-03-29 13:17:00,
2017-03-29 09:22:00,45.5,39.7,32.02,NNE,22,2.0,5.0,80,0.00,,,0.01,Wunderground v.1.13,2017-03-29 13:22:00,
2017-03-29 09:27:00,45.6,39.5,32.02,NNE,22,3.0,3.0,79,0.00,,,0.01,Wunderground v.1.13,2017-03-29 13:27:00,
2017-03-29 09:32:00,45.7,39.9,32.02,NNE,23,0.0,3.0,80,0.00,,,0.01,Wunderground v.1.13,2017-03-29 13:32:00,
2017-03-29 09:34:00,45.8,40.0,32.02,NNE,23,0.0,3.0,80,0.00,,,0.01,Wunderground v.1.13,2017-03-29 13:34:00,
2017-03-29 09:39:00,45.9,39.8,32.02,NNE,23,0.0,1.0,79,0.00,,,0.01,Wunderground v.1.13,2017-03-29 13:39:00,
2017-03-29 09:44:00,46.2,40.0,32.02,NNE,23,0.0,4.0,79,0.00,,,0.01,Wunderground v.1.13,2017-03-29 13:44:00,
2017-03-29 09:49:00,46.4,39.9,32.02,NNE,33,1.0,7.0,78,0.00,,,0.01,Wunderground v.1.13,2017-03-29 13:49:00,
2017-03-29 09:54:00,46.6,39.4,32.02,NE,34,0.0,6.0,76,0.00,,,0.01,Wunderground v.1.13,2017-03-29 13:54:00,
2017-03-29 09:59:00,46.9,39.7,32.02,NE,34,3.0,5.0,76,0.00,,,0.01,Wunderground v.1.13,2017-03-29 13:59:00,
2017-03-29 10:04:00,47.4,40.6,32.02,NE,34,0.0,2.0,77,0.00,,,0.01,Wunderground v.1.13,2017-03-29 14:04:00,
2017-03-29 10:09:00,47.6,39.7,32.02,NE,34,0.0,1.0,74,0.00,,,0.01,Wunderground v.1.13,2017-03-29 14:09:00,
2017-03-29 10:14:00,48.4,40.5,32.02,NE,35,6.0,7.0,74,0.00,,,0.01,Wunderground v.1.13,2017-03-29 14:14:00,
2017-03-29 10:19:00,49.2,41.3,32.02,North,5,1.0,8.0,74,0.00,,,0.01,Wunderground v.1.13,2017-03-29 14:19:00,
2017-03-29 10:24:00,49.9,40.9,32.02,North,5,5.0,5.0,71,0.00,,,0.01,Wunderground v.1.13,2017-03-29 14:24:00,
2017-03-29 10:29:00,50.7,41.3,32.02,NNE,19,4.0,7.0,70,0.00,,,0.01,Wunderground v.1.13,2017-03-29 14:29:00,
2017-03-29 10:34:00,50.8,40.2,32.02,NNE,20,3.0,8.0,67,0.00,,,0.01,Wunderground v.1.13,2017-03-29 14:34:00,
2017-03-29 10:39:00,50.8,41.0,32.02,NNE,24,0.0,5.0,69,0.00,,,0.01,Wunderground v.1.13,2017-03-29 14:39:00,
2017-03-29 10:44:00,50.7,40.5,32.02,NNE,24,0.0,2.0,68,0.00,,,0.01,Wunderground v.1.13,2017-03-29 14:44:00,
2017-03-29 10:49:00,50.4,39.9,32.02,NNE,24,0.0,3.0,67,0.00,,,0.01,Wunderground v.1.13,2017-03-29 14:49:00,
2017-03-29 10:54:00,50.4,41.0,32.02,NNE,24,0.0,1.0,70,0.00,,,0.01,Wunderground v.1.13,2017-03-29 14:54:00,
2017-03-29 10:59:00,50.9,41.1,32.02,NNE,25,3.0,6.0,69,0.00,,,0.01,Wunderground v.1.13,2017-03-29 14:59:00,
2017-03-29 11:04:00,51.6,41.0,32.02,NE,48,4.0,9.0,67,0.00,,,0.01,Wunderground v.1.13,2017-03-29 15:04:00,
2017-03-29 11:09:00,52.3,41.7,32.02,NE,46,4.0,6.0,67,0.00,,,0.01,Wunderground v.1.13,2017-03-29 15:09:00,
2017-03-29 11:14:00,52.6,41.2,32.02,NE,46,0.0,3.0,65,0.00,,,0.01,Wunderground v.1.13,2017-03-29 15:14:00,
2017-03-29 11:20:00,53.0,41.9,32.02,NE,47,0.0,5.0,66,0.00,,,0.01,Wunderground v.1.13,2017-03-29 15:20:00,
2017-03-29 11:25:00,53.3,41.8,32.02,NE,47,6.0,6.0,65,0.00,,,0.01,Wunderground v.1.13,2017-03-29 15:25:00,
2017-03-29 11:30:00,52.9,41.0,19.72,NE,41,0.0,7.0,64,0.00,,,0.01,Wunderground v.1.13,2017-03-29 15:30:00,
2017-03-29 11:35:00,52.9,42.6,19.72,NE,40,2.0,3.0,68,0.00,,,0.01,Wunderground v.1.13,2017-03-29 15:35:00,
2017-03-29 11:40:00,53.0,40.7,19.72,NE,34,1.0,7.0,63,0.00,,,0.01,Wunderground v.1.13,2017-03-29 15:40:00,
2017-03-29 11:45:00,53.0,40.7,19.72,NE,35,3.0,3.0,63,0.00,,,0.01,Wunderground v.1.13,2017-03-29 15:45:00,
2017-03-29 11:50:00,53.2,41.3,19.72,NE,35,0.0,2.0,64,0.00,,,0.01,Wunderground v.1.13,2017-03-29 15:50:00,
2017-03-29 11:55:00,53.4,41.1,19.72,North,9,4.0,5.0,63,0.00,,,0.01,Wunderground v.1.13,2017-03-29 15:55:00,
2017-03-29 12:00:00,53.5,41.2,19.72,NE,53,3.0,5.0,63,0.00,,,0.01,Wunderground v.1.13,2017-03-29 16:00:00,
2017-03-29 12:05:00,53.7,41.4,19.72,NE,53,1.0,4.0,63,0.00,,,0.01,Wunderground v.1.13,2017-03-29 16:05:00,
2017-03-29 12:10:00,54.4,42.1,19.72,NE,53,2.0,3.0,63,0.00,,,0.01,Wunderground v.1.13,2017-03-29 16:10:00,
2017-03-29 12:15:00,54.9,41.7,19.72,NE,34,4.0,5.0,61,0.00,,,0.01,Wunderground v.1.13,2017-03-29 16:15:00,
2017-03-29 12:20:00,55.1,41.0,19.72,NE,35,0.0,4.0,59,0.00,,,0.01,Wunderground v.1.13,2017-03-29 16:20:00,
2017-03-29 12:25:00,55.5,41.8,19.85,NE,34,0.0,2.0,60,0.00,,,0.01,Wunderground v.1.13,2017-03-29 16:25:00,
2017-03-29 12:30:00,55.8,43.0,19.85,NNW,338,0.0,2.0,62,0.00,,,0.01,Wunderground v.1.13,2017-03-29 16:30:00,
2017-03-29 12:35:00,56.0,41.9,19.85,NNW,338,2.0,3.0,59,0.00,,,0.01,Wunderground v.1.13,2017-03-29 16:35:00,
2017-03-29 12:40:00,55.9,40.9,19.85,NNW,342,3.0,3.0,57,0.00,,,0.01,Wunderground v.1.13,2017-03-29 16:40:00,
2017-03-29 12:45:00,55.7,40.7,19.85,North,355,0.0,4.0,57,0.00,,,0.01,Wunderground v.1.13,2017-03-29 16:45:00,
2017-03-29 12:50:00,55.8,40.3,19.85,North,355,0.0,3.0,56,0.00,,,0.01,Wunderground v.1.13,2017-03-29 16:50:00,
2017-03-29 12:55:00,55.9,41.3,19.85,North,355,2.0,3.0,58,0.00,,,0.01,Wunderground v.1.13,2017-03-29 16:55:00,
2017-03-29 13:00:00,56.2,40.7,19.85,North,360,1.0,5.0,56,0.00,,,0.01,Wunderground v.1.13,2017-03-29 17:00:00,
2017-03-29 13:05:00,56.7,41.2,19.85,North,9,3.0,3.0,56,0.00,,,0.01,Wunderground v.1.13,2017-03-29 17:05:00,
2017-03-29 13:10:00,56.7,40.2,19.85,NNE,15,3.0,4.0,54,0.00,,,0.01,Wunderground v.1.13,2017-03-29 17:10:00,
2017-03-29 13:15:00,56.9,40.9,19.85,NNE,15,0.0,3.0,55,0.00,,,0.01,Wunderground v.1.13,2017-03-29 17:15:00,
2017-03-29 13:20:00,57.3,42.6,19.85,NNE,14,0.0,1.0,58,0.00,,,0.01,Wunderground v.1.13,2017-03-29 17:20:00,
2017-03-29 13:25:00,57.8,41.3,19.85,NE,42,6.0,7.0,54,0.00,,,0.01,Wunderground v.1.13,2017-03-29 17:25:00,
2017-03-29 13:30:00,58.0,41.4,19.85,NNE,32,4.0,5.0,54,0.00,,,0.01,Wunderground v.1.13,2017-03-29 17:30:00,
2017-03-29 13:35:00,58.2,41.1,19.85,NNE,27,0.0,4.0,53,0.00,,,0.01,Wunderground v.1.13,2017-03-29 17:35:00,
2017-03-29 13:40:00,58.4,41.8,19.85,NNE,27,0.0,2.0,54,0.00,,,0.01,Wunderground v.1.13,2017-03-29 17:40:00,
2017-03-29 13:45:00,58.4,41.3,19.85,NNE,28,4.0,4.0,53,0.00,,,0.01,Wunderground v.1.13,2017-03-29 17:45:00,
2017-03-29 13:50:00,58.4,40.8,19.85,NNE,24,7.0,8.0,52,0.00,,,0.01,Wunderground v.1.13,2017-03-29 17:50:00,
2017-03-29 13:55:00,58.5,42.8,19.85,NNE,26,0.0,4.0,56,0.00,,,0.01,Wunderground v.1.13,2017-03-29 17:55:00,
2017-03-29 14:00:00,58.7,42.6,19.85,NNE,26,0.0,2.0,55,0.00,,,0.01,Wunderground v.1.13,2017-03-29 18:00:00,
2017-03-29 14:05:00,59.0,41.9,19.85,NNE,26,0.0,0.0,53,0.00,,,0.01,Wunderground v.1.13,2017-03-29 18:05:00,
2017-03-29 14:10:00,59.4,43.2,19.85,NNE,26,0.0,1.0,55,0.00,,,0.01,Wunderground v.1.13,2017-03-29 18:10:00,
2017-03-29 14:15:00,59.6,42.4,19.85,NNE,28,5.0,6.0,53,0.00,,,0.01,Wunderground v.1.13,2017-03-29 18:15:00,
2017-03-29 14:20:00,59.7,42.0,19.85,NNE,28,0.0,2.0,52,0.00,,,0.01,Wunderground v.1.13,2017-03-29 18:20:00,
2017-03-29 14:26:00,60.1,42.4,19.85,NNE,28,0.0,2.0,52,0.00,,,0.01,Wunderground v.1.13,2017-03-29 18:26:00,
2017-03-29 14:31:00,60.1,41.4,19.85,North,9,0.0,2.0,50,0.00,,,0.01,Wunderground v.1.13,2017-03-29 18:31:00,
2017-03-29 14:36:00,60.4,43.7,19.85,North,9,0.0,2.0,54,0.00,,,0.01,Wunderground v.1.13,2017-03-29 18:36:00,
2017-03-29 14:41:00,60.5,42.3,19.85,North,9,0.0,2.0,51,0.00,,,0.01,Wunderground v.1.13,2017-03-29 18:41:00,
2017-03-29 14:46:00,60.7,41.4,19.85,North,9,3.0,3.0,49,0.00,,,0.01,Wunderground v.1.13,2017-03-29 18:46:00,
2017-03-29 14:51:00,60.8,40.4,19.85,NE,40,6.0,6.0,47,0.00,,,0.01,Wunderground v.1.13,2017-03-29 18:51:00,
2017-03-29 14:56:00,60.9,42.1,19.85,NE,50,0.0,4.0,50,0.00,,,0.01,Wunderground v.1.13,2017-03-29 18:56:00,
2017-03-29 15:01:00,61.1,41.2,19.85,North,350,0.0,3.0,48,0.00,,,0.01,Wunderground v.1.13,2017-03-29 19:01:00,
2017-03-29 15:06:00,61.3,40.9,19.85,NNW,348,0.0,6.0,47,0.00,,,0.01,Wunderground v.1.13,2017-03-29 19:06:00,
2017-03-29 15:11:00,61.0,40.6,19.85,North,11,3.0,8.0,47,0.00,,,0.01,Wunderground v.1.13,2017-03-29 19:11:00,
2017-03-29 15:16:00,60.9,39.4,19.85,North,11,0.0,3.0,45,0.00,,,0.01,Wunderground v.1.13,2017-03-29 19:16:00,
2017-03-29 15:19:00,60.9,38.8,19.85,North,11,0.0,4.0,44,0.00,,,0.01,Wunderground v.1.13,2017-03-29 19:19:00,
2017-03-29 15:24:00,61.2,41.3,19.85,North,11,0.0,2.0,48,0.00,,,0.01,Wunderground v.1.13,2017-03-29 19:24:00,
2017-03-29 15:29:00,61.3,39.8,19.85,North,9,0.0,9.0,45,0.00,,,0.01,Wunderground v.1.13,2017-03-29 19:29:00,
2017-03-29 15:34:00,61.4,38.1,19.85,North,10,10.0,10.0,42,0.00,,,0.01,Wunderground v.1.13,2017-03-29 19:34:00,
2017-03-29 15:39:00,61.4,39.3,19.85,NNE,13,2.0,6.0,44,0.00,,,0.01,Wunderground v.1.13,2017-03-29 19:39:00,
2017-03-29 15:44:00,61.5,38.2,19.85,NE,39,7.0,7.0,42,0.00,,,0.01,Wunderground v.1.13,2017-03-29 19:44:00,
2017-03-29 15:49:00,61.6,39.5,19.85,North,5,4.0,10.0,44,0.00,,,0.01,Wunderground v.1.13,2017-03-29 19:49:00,
2017-03-29 15:54:00,61.8,40.8,19.85,North,5,1.0,3.0,46,0.00,,,0.01,Wunderground v.1.13,2017-03-29 19:54:00,
2017-03-29 15:59:00,62.0,39.8,19.85,NNE,20,0.0,8.0,44,0.00,,,0.01,Wunderground v.1.13,2017-03-29 19:59:00,
2017-03-29 16:04:00,62.0,39.8,19.85,NNE,20,0.0,5.0,44,0.00,,,0.01,Wunderground v.1.13,2017-03-29 20:04:00,
2017-03-29 16:09:00,62.1,41.1,19.85,NNE,13,0.0,4.0,46,0.00,,,0.01,Wunderground v.1.13,2017-03-29 20:09:00,
2017-03-29 16:14:00,62.2,41.2,19.85,NNE,13,0.0,7.0,46,0.00,,,0.01,Wunderground v.1.13,2017-03-29 20:14:00,
2017-03-29 16:19:00,62.3,41.8,19.85,NNW,348,0.0,10.0,47,0.00,,,0.01,Wunderground v.1.13,2017-03-29 20:19:00,
2017-03-29 16:20:00,62.3,41.2,19.85,NNW,345,0.0,2.0,46,0.00,,,0.01,Wunderground v.1.13,2017-03-29 20:20:00,
2017-03-29 16:25:00,62.6,42.1,19.85,NNW,338,0.0,1.0,47,0.00,,,0.01,Wunderground v.1.13,2017-03-29 20:25:00,
2017-03-29 16:30:00,62.8,41.7,19.85,NNW,336,0.0,3.0,46,0.00,,,0.01,Wunderground v.1.13,2017-03-29 20:30:00,
2017-03-29 16:35:00,63.0,40.7,19.85,NNW,346,3.0,3.0,44,0.00,,,0.01,Wunderground v.1.13,2017-03-29 20:35:00,
2017-03-29 16:40:00,62.8,41.7,19.85,NW,326,0.0,2.0,46,0.00,,,0.01,Wunderground v.1.13,2017-03-29 20:40:00,
2017-03-29 16:45:00,62.7,40.5,19.85,NW,326,0.0,2.0,44,0.00,,,0.01,Wunderground v.1.13,2017-03-29 20:45:00,
2017-03-29 16:50:00,62.6,40.4,19.85,NW,326,0.0,1.0,44,0.00,,,0.01,Wunderground v.1.13,2017-03-29 20:50:00,
2017-03-29 16:55:00,62.6,40.4,19.85,NW,326,0.0,0.0,44,0.00,,,0.01,Wunderground v.1.13,2017-03-29 20:55:00,
2017-03-29 17:00:00,62.6,39.8,19.85,NW,326,0.0,0.0,43,0.00,,,0.01,Wunderground v.1.13,2017-03-29 21:00:00,
2017-03-29 17:05:00,62.9,40.6,19.85,NW,326,0.0,0.0,44,0.00,,,0.01,Wunderground v.1.13,2017-03-29 21:05:00,
2017-03-29 17:10:00,63.0,40.1,19.85,NW,325,0.0,0.0,43,0.00,,,0.01,Wunderground v.1.13,2017-03-29 21:10:00,
2017-03-29 17:15:00,63.1,39.6,19.85,NW,325,0.0,4.0,42,0.00,,,0.01,Wunderground v.1.13,2017-03-29 21:15:00,
2017-03-29 17:20:00,63.1,39.6,19.85,NW,325,0.0,4.0,42,0.00,,,0.01,Wunderground v.1.13,2017-03-29 21:20:00,
2017-03-29 17:25:00,62.9,39.4,19.85,NW,325,0.0,1.0,42,0.00,,,0.01,Wunderground v.1.13,2017-03-29 21:25:00,
2017-03-29 17:31:00,63.0,38.9,19.85,NW,325,0.0,0.0,41,0.00,,,0.01,Wunderground v.1.13,2017-03-29 21:31:00,
2017-03-29 17:36:00,62.9,38.8,19.85,NW,325,0.0,0.0,41,0.00,,,0.01,Wunderground v.1.13,2017-03-29 21:36:00,
2017-03-29 17:41:00,62.8,37.5,19.85,NW,325,0.0,4.0,39,0.00,,,0.01,Wunderground v.1.13,2017-03-29 21:41:00,